South Erie, Pennsylvania
Current Conditions -  °F | °C
As of 11:51 PM on Monday 20 Oct 2014 (Local Time) from KERI Reporting Station
Overcast Overcast  
Wind Chill: 52°   Ceiling: 1600
Heat Index: 52°   Visibility: 10mi
Dew Point: 48°   Wind: 10mph
Humidity: 86%   Direction: 210°SSW
Pressure: 29.82"   Gusts: NA
Location:  42.0975°N, 80.0932°W
Report Text: KERI 210351Z AUTO 21009KT 10SM OVC016 11/09 A2982 RMK AO2 RAE50 SLP097 P0003 T01110089 $
Loading
Personal Weather Stations






























Interactive Weather Map
Tropical Storm Tracking
New forecast layout! Learn more

10-Day Weather Forecast

Advertisements
Track Severe Weather on mobile